sensor_id;sensor_type;location;lat;lon;timestamp;pressure;altitude;pressure_sealevel;temperature;humidity
41830;BME280;38614;43.472;23.936;2023-02-19T00:02:23;100312.47;;;3.87;nan
41830;BME280;38614;43.472;23.936;2023-02-19T00:05:14;100317.94;;;3.87;nan
41830;BME280;38614;43.472;23.936;2023-02-19T00:08:01;100299.84;;;3.55;nan
41830;BME280;38614;43.472;23.936;2023-02-19T00:10:49;100345.03;;;3.61;nan
41830;BME280;38614;43.472;23.936;2023-02-19T00:13:39;100342.00;;;3.63;nan
41830;BME280;38614;43.472;23.936;2023-02-19T00:16:38;100341.31;;;3.57;nan
41830;BME280;38614;43.472;23.936;2023-02-19T00:19:26;100326.34;;;3.55;nan
41830;BME280;38614;43.472;23.936;2023-02-19T00:22:14;100305.72;;;3.49;nan
41830;BME280;38614;43.472;23.936;2023-02-19T00:25:02;100358.94;;;3.51;nan
41830;BME280;38614;43.472;23.936;2023-02-19T00:27:50;100343.16;;;3.34;nan
41830;BME280;38614;43.472;23.936;2023-02-19T00:30:38;100333.69;;;3.32;nan
41830;BME280;38614;43.472;23.936;2023-02-19T00:33:26;100340.38;;;3.26;nan
41830;BME280;38614;43.472;23.936;2023-02-19T00:36:16;100359.50;;;3.26;nan
41830;BME280;38614;43.472;23.936;2023-02-19T00:39:05;100355.66;;;3.27;nan
41830;BME280;38614;43.472;23.936;2023-02-19T00:41:53;100338.84;;;3.20;nan
41830;BME280;38614;43.472;23.936;2023-02-19T00:44:43;100343.69;;;3.23;nan
41830;BME280;38614;43.472;23.936;2023-02-19T00:47:31;100324.50;;;3.28;nan
41830;BME280;38614;43.472;23.936;2023-02-19T00:50:18;100295.88;;;2.98;nan
41830;BME280;38614;43.472;23.936;2023-02-19T00:53:06;100336.75;;;3.17;nan
41830;BME280;38614;43.472;23.936;2023-02-19T00:55:54;100334.41;;;3.10;nan
41830;BME280;38614;43.472;23.936;2023-02-19T00:58:43;100343.00;;;3.03;nan
41830;BME280;38614;43.472;23.936;2023-02-19T01:01:31;100321.34;;;3.21;nan
41830;BME280;38614;43.472;23.936;2023-02-19T01:04:18;100325.59;;;3.13;nan
41830;BME280;38614;43.472;23.936;2023-02-19T01:07:06;100334.00;;;3.03;nan
41830;BME280;38614;43.472;23.936;2023-02-19T01:09:56;100327.53;;;2.85;nan
41830;BME280;38614;43.472;23.936;2023-02-19T01:12:44;100341.50;;;2.83;nan
41830;BME280;38614;43.472;23.936;2023-02-19T01:15:33;100340.69;;;2.83;nan
41830;BME280;38614;43.472;23.936;2023-02-19T01:18:20;100321.16;;;2.76;nan
41830;BME280;38614;43.472;23.936;2023-02-19T01:21:12;100321.59;;;2.83;nan
41830;BME280;38614;43.472;23.936;2023-02-19T01:24:00;100333.19;;;2.75;nan
41830;BME280;38614;43.472;23.936;2023-02-19T01:26:48;100339.47;;;2.75;nan
41830;BME280;38614;43.472;23.936;2023-02-19T01:29:36;100345.53;;;2.72;nan
41830;BME280;38614;43.472;23.936;2023-02-19T01:32:23;100353.31;;;2.65;nan
41830;BME280;38614;43.472;23.936;2023-02-19T01:35:11;100338.13;;;2.59;nan
41830;BME280;38614;43.472;23.936;2023-02-19T01:38:01;100303.28;;;2.42;nan
41830;BME280;38614;43.472;23.936;2023-02-19T01:40:56;100338.25;;;2.68;nan
41830;BME280;38614;43.472;23.936;2023-02-19T01:46:50;100335.09;;;2.47;nan
41830;BME280;38614;43.472;23.936;2023-02-19T01:49:45;100329.00;;;2.36;nan
41830;BME280;38614;43.472;23.936;2023-02-19T01:52:39;100344.56;;;2.49;nan
41830;BME280;38614;43.472;23.936;2023-02-19T01:55:27;100344.19;;;2.56;nan
41830;BME280;38614;43.472;23.936;2023-02-19T01:58:17;100344.00;;;2.52;nan
41830;BME280;38614;43.472;23.936;2023-02-19T02:01:06;100332.22;;;2.38;nan
41830;BME280;38614;43.472;23.936;2023-02-19T02:03:55;100314.44;;;2.27;nan
41830;BME280;38614;43.472;23.936;2023-02-19T02:06:47;100344.44;;;2.41;nan
41830;BME280;38614;43.472;23.936;2023-02-19T02:09:36;100352.50;;;2.32;nan
41830;BME280;38614;43.472;23.936;2023-02-19T02:12:42;100346.78;;;2.34;nan
41830;BME280;38614;43.472;23.936;2023-02-19T02:15:48;100346.28;;;2.45;nan
41830;BME280;38614;43.472;23.936;2023-02-19T02:22:03;100344.91;;;2.62;nan
41830;BME280;38614;43.472;23.936;2023-02-19T02:31:37;100367.94;;;2.69;nan
41830;BME280;38614;43.472;23.936;2023-02-19T02:34:33;100367.66;;;2.71;nan
41830;BME280;38614;43.472;23.936;2023-02-19T02:37:27;100343.88;;;2.57;nan
41830;BME280;38614;43.472;23.936;2023-02-19T02:40:17;100374.06;;;2.80;nan
41830;BME280;38614;43.472;23.936;2023-02-19T02:43:06;100376.25;;;2.78;nan
41830;BME280;38614;43.472;23.936;2023-02-19T02:45:54;100379.97;;;2.68;nan
41830;BME280;38614;43.472;23.936;2023-02-19T02:48:56;100364.09;;;2.56;nan
41830;BME280;38614;43.472;23.936;2023-02-19T02:51:50;100300.25;;;2.11;nan
41830;BME280;38614;43.472;23.936;2023-02-19T02:54:44;100368.63;;;2.47;nan
41830;BME280;38614;43.472;23.936;2023-02-19T02:57:52;100381.50;;;2.61;nan
41830;BME280;38614;43.472;23.936;2023-02-19T03:00:42;100364.28;;;2.60;nan
41830;BME280;38614;43.472;23.936;2023-02-19T03:03:57;100391.84;;;2.91;nan
41830;BME280;38614;43.472;23.936;2023-02-19T03:06:48;100389.69;;;2.88;nan
41830;BME280;38614;43.472;23.936;2023-02-19T03:09:41;100398.19;;;2.86;nan
41830;BME280;38614;43.472;23.936;2023-02-19T03:12:31;100392.53;;;2.97;nan
41830;BME280;38614;43.472;23.936;2023-02-19T03:15:47;100386.28;;;3.24;nan
41830;BME280;38614;43.472;23.936;2023-02-19T03:18:58;100366.03;;;3.38;nan
41830;BME280;38614;43.472;23.936;2023-02-19T03:22:09;100393.13;;;3.62;nan
41830;BME280;38614;43.472;23.936;2023-02-19T03:25:29;100387.06;;;3.52;nan
41830;BME280;38614;43.472;23.936;2023-02-19T03:28:39;100399.94;;;3.87;nan
41830;BME280;38614;43.472;23.936;2023-02-19T03:31:56;100397.44;;;3.91;nan
41830;BME280;38614;43.472;23.936;2023-02-19T03:34:53;100394.13;;;4.03;nan
41830;BME280;38614;43.472;23.936;2023-02-19T03:37:45;100384.38;;;4.86;nan
41830;BME280;38614;43.472;23.936;2023-02-19T03:40:50;100396.00;;;6.14;nan
41830;BME280;38614;43.472;23.936;2023-02-19T03:43:47;100396.84;;;6.79;nan
41830;BME280;38614;43.472;23.936;2023-02-19T03:46:54;100360.63;;;7.53;nan
41830;BME280;38614;43.472;23.936;2023-02-19T03:55:50;100386.38;;;8.53;nan
41830;BME280;38614;43.472;23.936;2023-02-19T04:01:46;100360.19;;;8.80;nan
41830;BME280;38614;43.472;23.936;2023-02-19T04:04:40;100373.50;;;9.02;nan
41830;BME280;38614;43.472;23.936;2023-02-19T04:07:34;100359.41;;;9.04;nan
41830;BME280;38614;43.472;23.936;2023-02-19T04:10:24;100367.91;;;9.11;nan
41830;BME280;38614;43.472;23.936;2023-02-19T04:13:21;100366.75;;;9.36;nan
41830;BME280;38614;43.472;23.936;2023-02-19T04:16:16;100371.13;;;9.62;nan
41830;BME280;38614;43.472;23.936;2023-02-19T04:19:12;100378.69;;;9.65;nan
41830;BME280;38614;43.472;23.936;2023-02-19T04:22:04;100387.19;;;9.72;nan
41830;BME280;38614;43.472;23.936;2023-02-19T04:24:53;100380.03;;;9.83;nan
41830;BME280;38614;43.472;23.936;2023-02-19T04:27:43;100377.97;;;9.80;nan
41830;BME280;38614;43.472;23.936;2023-02-19T04:30:31;100385.13;;;9.69;nan
41830;BME280;38614;43.472;23.936;2023-02-19T04:33:19;100388.25;;;9.55;nan
41830;BME280;38614;43.472;23.936;2023-02-19T04:36:09;100391.13;;;9.59;nan
41830;BME280;38614;43.472;23.936;2023-02-19T04:38:58;100391.69;;;9.64;nan
41830;BME280;38614;43.472;23.936;2023-02-19T04:41:45;100382.78;;;9.83;nan
41830;BME280;38614;43.472;23.936;2023-02-19T04:44:33;100371.78;;;9.71;nan
41830;BME280;38614;43.472;23.936;2023-02-19T04:47:21;100371.06;;;9.74;nan
41830;BME280;38614;43.472;23.936;2023-02-19T04:50:09;100378.19;;;9.87;nan
41830;BME280;38614;43.472;23.936;2023-02-19T04:52:56;100375.09;;;9.77;nan
41830;BME280;38614;43.472;23.936;2023-02-19T04:55:47;100356.59;;;9.77;nan
41830;BME280;38614;43.472;23.936;2023-02-19T04:58:34;100377.72;;;9.85;nan
41830;BME280;38614;43.472;23.936;2023-02-19T05:01:23;100372.19;;;9.85;nan
41830;BME280;38614;43.472;23.936;2023-02-19T05:04:11;100365.28;;;9.91;nan
41830;BME280;38614;43.472;23.936;2023-02-19T05:06:59;100353.44;;;9.91;nan
41830;BME280;38614;43.472;23.936;2023-02-19T05:09:46;100361.72;;;9.91;nan
41830;BME280;38614;43.472;23.936;2023-02-19T05:12:34;100348.50;;;9.84;nan
41830;BME280;38614;43.472;23.936;2023-02-19T05:15:22;100380.34;;;10.06;nan
41830;BME280;38614;43.472;23.936;2023-02-19T05:18:09;100393.53;;;10.13;nan
41830;BME280;38614;43.472;23.936;2023-02-19T05:20:58;100390.34;;;9.98;nan
41830;BME280;38614;43.472;23.936;2023-02-19T05:23:46;100392.69;;;9.84;nan
41830;BME280;38614;43.472;23.936;2023-02-19T05:26:34;100382.84;;;9.59;nan
41830;BME280;38614;43.472;23.936;2023-02-19T05:29:21;100406.63;;;9.63;nan
41830;BME280;38614;43.472;23.936;2023-02-19T05:32:09;100415.13;;;9.58;nan
41830;BME280;38614;43.472;23.936;2023-02-19T05:34:57;100394.22;;;9.45;nan
41830;BME280;38614;43.472;23.936;2023-02-19T05:37:46;100428.00;;;9.54;nan
41830;BME280;38614;43.472;23.936;2023-02-19T05:40:34;100437.66;;;9.73;nan
41830;BME280;38614;43.472;23.936;2023-02-19T05:43:22;100439.06;;;9.79;nan
41830;BME280;38614;43.472;23.936;2023-02-19T05:46:11;100452.03;;;9.78;nan
41830;BME280;38614;43.472;23.936;2023-02-19T05:48:59;100452.81;;;9.91;nan
41830;BME280;38614;43.472;23.936;2023-02-19T05:51:49;100445.72;;;9.78;nan
41830;BME280;38614;43.472;23.936;2023-02-19T05:54:37;100463.16;;;10.06;nan
41830;BME280;38614;43.472;23.936;2023-02-19T05:57:25;100455.66;;;10.19;nan
41830;BME280;38614;43.472;23.936;2023-02-19T06:00:16;100476.72;;;10.36;nan
41830;BME280;38614;43.472;23.936;2023-02-19T06:03:07;100465.59;;;10.48;nan
41830;BME280;38614;43.472;23.936;2023-02-19T06:05:54;100466.06;;;10.50;nan
41830;BME280;38614;43.472;23.936;2023-02-19T06:08:42;100474.84;;;10.68;nan
41830;BME280;38614;43.472;23.936;2023-02-19T06:11:30;100471.00;;;10.84;nan
41830;BME280;38614;43.472;23.936;2023-02-19T06:14:18;100457.84;;;11.25;nan
41830;BME280;38614;43.472;23.936;2023-02-19T06:17:06;100484.72;;;11.88;nan
41830;BME280;38614;43.472;23.936;2023-02-19T06:19:53;100476.81;;;12.21;nan
41830;BME280;38614;43.472;23.936;2023-02-19T06:22:41;100485.06;;;12.37;nan
41830;BME280;38614;43.472;23.936;2023-02-19T06:25:29;100476.41;;;12.39;nan
41830;BME280;38614;43.472;23.936;2023-02-19T06:28:17;100465.91;;;12.48;nan
41830;BME280;38614;43.472;23.936;2023-02-19T06:31:09;100468.09;;;12.77;nan
41830;BME280;38614;43.472;23.936;2023-02-19T06:33:57;100448.69;;;12.77;nan
41830;BME280;38614;43.472;23.936;2023-02-19T06:36:48;100453.34;;;12.73;nan
41830;BME280;38614;43.472;23.936;2023-02-19T06:39:36;100458.38;;;12.48;nan
41830;BME280;38614;43.472;23.936;2023-02-19T06:42:24;100446.34;;;12.41;nan
41830;BME280;38614;43.472;23.936;2023-02-19T06:45:15;100447.38;;;12.52;nan
41830;BME280;38614;43.472;23.936;2023-02-19T06:48:03;100469.69;;;12.78;nan
41830;BME280;38614;43.472;23.936;2023-02-19T06:50:52;100460.84;;;12.73;nan
41830;BME280;38614;43.472;23.936;2023-02-19T06:53:40;100444.16;;;12.69;nan
41830;BME280;38614;43.472;23.936;2023-02-19T06:56:32;100434.72;;;12.74;nan
41830;BME280;38614;43.472;23.936;2023-02-19T06:59:20;100478.69;;;13.14;nan
41830;BME280;38614;43.472;23.936;2023-02-19T07:02:10;100491.00;;;13.36;nan
41830;BME280;38614;43.472;23.936;2023-02-19T07:05:00;100462.38;;;13.55;nan
41830;BME280;38614;43.472;23.936;2023-02-19T07:07:48;100491.03;;;13.85;nan
41830;BME280;38614;43.472;23.936;2023-02-19T07:10:36;100484.75;;;13.88;nan
41830;BME280;38614;43.472;23.936;2023-02-19T07:13:25;100487.41;;;14.08;nan
41830;BME280;38614;43.472;23.936;2023-02-19T07:16:13;100459.78;;;14.18;nan
41830;BME280;38614;43.472;23.936;2023-02-19T07:19:02;100490.34;;;14.18;nan
41830;BME280;38614;43.472;23.936;2023-02-19T07:21:50;100497.47;;;14.16;nan
41830;BME280;38614;43.472;23.936;2023-02-19T07:24:37;100473.91;;;14.06;nan
41830;BME280;38614;43.472;23.936;2023-02-19T07:27:25;100501.38;;;14.41;nan
41830;BME280;38614;43.472;23.936;2023-02-19T07:30:13;100492.88;;;14.57;nan
41830;BME280;38614;43.472;23.936;2023-02-19T07:33:01;100480.44;;;14.47;nan
41830;BME280;38614;43.472;23.936;2023-02-19T07:35:49;100484.41;;;14.46;nan
41830;BME280;38614;43.472;23.936;2023-02-19T07:38:37;100495.56;;;14.50;nan
41830;BME280;38614;43.472;23.936;2023-02-19T07:41:26;100463.63;;;14.40;nan
41830;BME280;38614;43.472;23.936;2023-02-19T07:44:16;100502.13;;;14.65;nan
41830;BME280;38614;43.472;23.936;2023-02-19T07:47:04;100506.88;;;14.94;nan
41830;BME280;38614;43.472;23.936;2023-02-19T07:49:54;100518.00;;;14.94;nan
41830;BME280;38614;43.472;23.936;2023-02-19T07:52:44;100476.09;;;14.80;nan
41830;BME280;38614;43.472;23.936;2023-02-19T07:55:35;100515.88;;;15.18;nan
41830;BME280;38614;43.472;23.936;2023-02-19T07:58:22;100517.63;;;15.33;nan
41830;BME280;38614;43.472;23.936;2023-02-19T08:01:18;100521.38;;;15.51;nan
41830;BME280;38614;43.472;23.936;2023-02-19T08:04:26;100494.09;;;15.64;nan
41830;BME280;38614;43.472;23.936;2023-02-19T08:07:14;100496.31;;;15.92;nan
41830;BME280;38614;43.472;23.936;2023-02-19T08:10:03;100477.63;;;16.00;nan
41830;BME280;38614;43.472;23.936;2023-02-19T08:13:19;100483.97;;;15.93;nan
41830;BME280;38614;43.472;23.936;2023-02-19T08:16:13;100489.34;;;16.27;nan
41830;BME280;38614;43.472;23.936;2023-02-19T08:19:15;100490.69;;;16.54;nan
41830;BME280;38614;43.472;23.936;2023-02-19T08:22:03;100499.53;;;16.67;nan
41830;BME280;38614;43.472;23.936;2023-02-19T08:24:51;100488.25;;;16.45;nan
41830;BME280;38614;43.472;23.936;2023-02-19T08:27:42;100491.53;;;16.58;nan
41830;BME280;38614;43.472;23.936;2023-02-19T08:30:33;100508.75;;;16.71;nan
41830;BME280;38614;43.472;23.936;2023-02-19T08:33:23;100517.97;;;16.89;nan
41830;BME280;38614;43.472;23.936;2023-02-19T08:36:24;100523.22;;;17.05;nan
41830;BME280;38614;43.472;23.936;2023-02-19T08:39:18;100483.63;;;16.71;nan
41830;BME280;38614;43.472;23.936;2023-02-19T08:42:07;100513.31;;;17.22;nan
41830;BME280;38614;43.472;23.936;2023-02-19T08:44:54;100520.88;;;17.28;nan
41830;BME280;38614;43.472;23.936;2023-02-19T08:47:43;100512.13;;;17.37;nan
41830;BME280;38614;43.472;23.936;2023-02-19T08:50:31;100484.56;;;17.21;nan
41830;BME280;38614;43.472;23.936;2023-02-19T08:53:18;100505.31;;;17.17;nan
41830;BME280;38614;43.472;23.936;2023-02-19T08:56:08;100483.34;;;17.08;nan
41830;BME280;38614;43.472;23.936;2023-02-19T08:58:56;100508.16;;;17.42;nan
41830;BME280;38614;43.472;23.936;2023-02-19T09:01:43;100496.59;;;17.64;nan
41830;BME280;38614;43.472;23.936;2023-02-19T09:04:31;100495.81;;;17.75;nan
41830;BME280;38614;43.472;23.936;2023-02-19T09:07:19;100485.44;;;17.86;nan
41830;BME280;38614;43.472;23.936;2023-02-19T09:10:11;100484.63;;;17.67;nan
41830;BME280;38614;43.472;23.936;2023-02-19T09:13:03;100484.66;;;17.71;nan
41830;BME280;38614;43.472;23.936;2023-02-19T09:15:56;100472.28;;;17.79;nan
41830;BME280;38614;43.472;23.936;2023-02-19T09:18:55;100473.09;;;17.80;nan
41830;BME280;38614;43.472;23.936;2023-02-19T09:21:46;100487.00;;;18.19;nan
41830;BME280;38614;43.472;23.936;2023-02-19T09:24:34;100488.50;;;18.56;nan
41830;BME280;38614;43.472;23.936;2023-02-19T09:27:21;100484.97;;;18.23;nan
41830;BME280;38614;43.472;23.936;2023-02-19T09:30:09;100472.63;;;18.13;nan
41830;BME280;38614;43.472;23.936;2023-02-19T09:32:57;100484.16;;;18.37;nan
41830;BME280;38614;43.472;23.936;2023-02-19T09:35:45;100448.22;;;18.21;nan
41830;BME280;38614;43.472;23.936;2023-02-19T09:38:33;100447.91;;;17.98;nan
41830;BME280;38614;43.472;23.936;2023-02-19T09:44:24;100476.88;;;18.68;nan
41830;BME280;38614;43.472;23.936;2023-02-19T09:47:22;100454.50;;;18.57;nan
41830;BME280;38614;43.472;23.936;2023-02-19T09:50:16;100465.31;;;18.51;nan
41830;BME280;38614;43.472;23.936;2023-02-19T09:53:14;100463.31;;;18.56;nan
41830;BME280;38614;43.472;23.936;2023-02-19T09:56:09;100437.75;;;18.54;nan
41830;BME280;38614;43.472;23.936;2023-02-19T09:59:00;100466.94;;;18.52;nan
41830;BME280;38614;43.472;23.936;2023-02-19T10:01:54;100466.94;;;18.49;nan
41830;BME280;38614;43.472;23.936;2023-02-19T10:04:45;100462.16;;;18.39;nan
41830;BME280;38614;43.472;23.936;2023-02-19T10:07:39;100451.69;;;18.68;nan
41830;BME280;38614;43.472;23.936;2023-02-19T10:10:31;100446.03;;;18.82;nan
41830;BME280;38614;43.472;23.936;2023-02-19T10:13:23;100444.97;;;18.47;nan
41830;BME280;38614;43.472;23.936;2023-02-19T10:16:23;100417.41;;;18.39;nan
41830;BME280;38614;43.472;23.936;2023-02-19T10:19:12;100432.56;;;18.52;nan
41830;BME280;38614;43.472;23.936;2023-02-19T10:22:01;100438.84;;;18.77;nan
41830;BME280;38614;43.472;23.936;2023-02-19T10:24:52;100402.13;;;18.65;nan
41830;BME280;38614;43.472;23.936;2023-02-19T10:27:41;100428.69;;;19.05;nan
41830;BME280;38614;43.472;23.936;2023-02-19T10:30:34;100423.59;;;18.89;nan
41830;BME280;38614;43.472;23.936;2023-02-19T10:34:20;100348.13;;;18.61;nan
41830;BME280;38614;43.472;23.936;2023-02-19T10:37:16;100405.81;;;19.14;nan
41830;BME280;38614;43.472;23.936;2023-02-19T10:40:15;100415.19;;;19.45;nan
41830;BME280;38614;43.472;23.936;2023-02-19T10:43:03;100404.75;;;19.49;nan
41830;BME280;38614;43.472;23.936;2023-02-19T10:45:52;100364.56;;;19.21;nan
41830;BME280;38614;43.472;23.936;2023-02-19T10:48:46;100379.50;;;19.52;nan
41830;BME280;38614;43.472;23.936;2023-02-19T10:51:38;100377.09;;;19.54;nan
41830;BME280;38614;43.472;23.936;2023-02-19T10:54:31;100340.03;;;19.36;nan
41830;BME280;38614;43.472;23.936;2023-02-19T11:00:30;100360.19;;;19.65;nan
41830;BME280;38614;43.472;23.936;2023-02-19T11:03:21;100362.13;;;19.27;nan
41830;BME280;38614;43.472;23.936;2023-02-19T11:06:10;100348.81;;;19.34;nan
41830;BME280;38614;43.472;23.936;2023-02-19T11:08:59;100359.47;;;19.57;nan
41830;BME280;38614;43.472;23.936;2023-02-19T11:11:51;100345.41;;;19.61;nan
41830;BME280;38614;43.472;23.936;2023-02-19T11:14:42;100345.47;;;19.50;nan
41830;BME280;38614;43.472;23.936;2023-02-19T11:17:30;100346.09;;;19.72;nan
41830;BME280;38614;43.472;23.936;2023-02-19T11:20:18;100331.56;;;19.84;nan
41830;BME280;38614;43.472;23.936;2023-02-19T11:23:15;100336.31;;;19.87;nan
41830;BME280;38614;43.472;23.936;2023-02-19T11:26:12;100304.81;;;19.76;nan
41830;BME280;38614;43.472;23.936;2023-02-19T11:29:15;100332.97;;;19.66;nan
41830;BME280;38614;43.472;23.936;2023-02-19T11:32:26;100320.47;;;19.74;nan
41830;BME280;38614;43.472;23.936;2023-02-19T11:35:20;100330.94;;;19.66;nan
41830;BME280;38614;43.472;23.936;2023-02-19T11:38:11;100294.28;;;19.46;nan
41830;BME280;38614;43.472;23.936;2023-02-19T11:41:56;100315.44;;;19.92;nan
41830;BME280;38614;43.472;23.936;2023-02-19T11:50:50;100300.72;;;19.81;nan
41830;BME280;38614;43.472;23.936;2023-02-19T11:56:49;100297.69;;;20.02;nan
41830;BME280;38614;43.472;23.936;2023-02-19T12:00:00;100287.47;;;19.85;nan
41830;BME280;38614;43.472;23.936;2023-02-19T12:33:51;100223.28;;;19.60;nan
41830;BME280;38614;43.472;23.936;2023-02-19T12:45:22;100196.41;;;19.62;nan
41830;BME280;38614;43.472;23.936;2023-02-19T12:51:27;100188.91;;;19.52;nan
41830;BME280;38614;43.472;23.936;2023-02-19T12:54:28;100187.28;;;19.21;nan
41830;BME280;38614;43.472;23.936;2023-02-19T12:57:25;100177.59;;;19.29;nan
41830;BME280;38614;43.472;23.936;2023-02-19T13:00:52;100166.44;;;19.22;nan
41830;BME280;38614;43.472;23.936;2023-02-19T13:04:11;100180.00;;;19.64;nan
41830;BME280;38614;43.472;23.936;2023-02-19T13:09:59;100164.47;;;19.56;nan
41830;BME280;38614;43.472;23.936;2023-02-19T13:12:53;100143.19;;;19.25;nan
41830;BME280;38614;43.472;23.936;2023-02-19T13:15:45;100158.28;;;19.34;nan
41830;BME280;38614;43.472;23.936;2023-02-19T13:18:41;100154.31;;;19.32;nan
41830;BME280;38614;43.472;23.936;2023-02-19T13:21:32;100146.78;;;19.29;nan
41830;BME280;38614;43.472;23.936;2023-02-19T13:24:41;100144.78;;;19.26;nan
41830;BME280;38614;43.472;23.936;2023-02-19T13:28:00;100126.03;;;19.23;nan
41830;BME280;38614;43.472;23.936;2023-02-19T13:34:10;100125.72;;;19.14;nan
41830;BME280;38614;43.472;23.936;2023-02-19T13:37:00;100123.41;;;19.08;nan
41830;BME280;38614;43.472;23.936;2023-02-19T13:39:51;100123.94;;;19.30;nan
41830;BME280;38614;43.472;23.936;2023-02-19T13:42:40;100125.50;;;19.31;nan
41830;BME280;38614;43.472;23.936;2023-02-19T13:45:38;100099.22;;;19.22;nan
41830;BME280;38614;43.472;23.936;2023-02-19T13:48:39;100110.25;;;19.36;nan
41830;BME280;38614;43.472;23.936;2023-02-19T13:57:25;100095.31;;;19.46;nan
41830;BME280;38614;43.472;23.936;2023-02-19T14:00:50;100104.53;;;19.43;nan
41830;BME280;38614;43.472;23.936;2023-02-19T14:04:06;100096.28;;;18.98;nan
41830;BME280;38614;43.472;23.936;2023-02-19T14:09:53;100062.63;;;18.71;nan
41830;BME280;38614;43.472;23.936;2023-02-19T14:12:41;100088.28;;;19.00;nan
41830;BME280;38614;43.472;23.936;2023-02-19T14:15:42;100079.91;;;18.97;nan
41830;BME280;38614;43.472;23.936;2023-02-19T14:18:44;100102.34;;;18.93;nan
41830;BME280;38614;43.472;23.936;2023-02-19T14:21:35;100089.19;;;18.90;nan
41830;BME280;38614;43.472;23.936;2023-02-19T14:24:24;100071.81;;;18.72;nan
41830;BME280;38614;43.472;23.936;2023-02-19T14:27:12;100097.00;;;18.68;nan
41830;BME280;38614;43.472;23.936;2023-02-19T14:30:00;100082.38;;;18.50;nan
41830;BME280;38614;43.472;23.936;2023-02-19T14:32:49;100087.28;;;18.39;nan
41830;BME280;38614;43.472;23.936;2023-02-19T14:39:23;100081.03;;;18.20;nan
41830;BME280;38614;43.472;23.936;2023-02-19T14:42:17;100073.19;;;18.05;nan
41830;BME280;38614;43.472;23.936;2023-02-19T14:45:08;100087.47;;;18.17;nan
41830;BME280;38614;43.472;23.936;2023-02-19T14:47:56;100085.91;;;18.13;nan
41830;BME280;38614;43.472;23.936;2023-02-19T14:50:48;100091.16;;;18.07;nan
41830;BME280;38614;43.472;23.936;2023-02-19T14:53:40;100083.66;;;17.93;nan
41830;BME280;38614;43.472;23.936;2023-02-19T14:56:32;100071.38;;;17.80;nan
41830;BME280;38614;43.472;23.936;2023-02-19T14:59:27;100076.19;;;17.76;nan
41830;BME280;38614;43.472;23.936;2023-02-19T15:02:15;100071.06;;;17.64;nan
41830;BME280;38614;43.472;23.936;2023-02-19T15:05:17;100073.47;;;17.62;nan
41830;BME280;38614;43.472;23.936;2023-02-19T15:08:11;100070.72;;;17.55;nan
41830;BME280;38614;43.472;23.936;2023-02-19T15:11:02;100071.94;;;17.47;nan
41830;BME280;38614;43.472;23.936;2023-02-19T15:13:59;100069.63;;;17.34;nan
41830;BME280;38614;43.472;23.936;2023-02-19T15:16:49;100083.97;;;17.36;nan
41830;BME280;38614;43.472;23.936;2023-02-19T15:19:58;100082.06;;;17.19;nan
41830;BME280;38614;43.472;23.936;2023-02-19T15:22:50;100075.31;;;17.09;nan
41830;BME280;38614;43.472;23.936;2023-02-19T15:25:41;100077.75;;;17.00;nan
41830;BME280;38614;43.472;23.936;2023-02-19T15:28:31;100075.41;;;16.88;nan
41830;BME280;38614;43.472;23.936;2023-02-19T15:31:19;100079.81;;;16.71;nan
41830;BME280;38614;43.472;23.936;2023-02-19T15:34:18;100064.66;;;16.62;nan
41830;BME280;38614;43.472;23.936;2023-02-19T15:37:08;100060.72;;;16.52;nan
41830;BME280;38614;43.472;23.936;2023-02-19T15:40:02;100064.31;;;16.42;nan
41830;BME280;38614;43.472;23.936;2023-02-19T15:42:51;100071.91;;;16.31;nan
41830;BME280;38614;43.472;23.936;2023-02-19T15:45:40;100052.00;;;16.04;nan
41830;BME280;38614;43.472;23.936;2023-02-19T15:48:38;100075.09;;;16.04;nan
41830;BME280;38614;43.472;23.936;2023-02-19T15:51:34;100070.69;;;15.85;nan
41830;BME280;38614;43.472;23.936;2023-02-19T15:54:30;100083.84;;;15.88;nan
41830;BME280;38614;43.472;23.936;2023-02-19T15:57:24;100079.03;;;15.67;nan
41830;BME280;38614;43.472;23.936;2023-02-19T16:00:58;100080.63;;;15.65;nan
41830;BME280;38614;43.472;23.936;2023-02-19T16:03:26;100068.63;;;15.50;nan
41830;BME280;38614;43.472;23.936;2023-02-19T16:06:17;100070.94;;;15.30;nan
41830;BME280;38614;43.472;23.936;2023-02-19T16:09:06;100103.19;;;15.42;nan
41830;BME280;38614;43.472;23.936;2023-02-19T16:12:20;100105.59;;;15.40;nan
41830;BME280;38614;43.472;23.936;2023-02-19T16:15:19;100111.53;;;15.42;nan
41830;BME280;38614;43.472;23.936;2023-02-19T16:18:12;100103.56;;;15.33;nan
41830;BME280;38614;43.472;23.936;2023-02-19T16:21:05;100120.22;;;15.23;nan
41830;BME280;38614;43.472;23.936;2023-02-19T16:24:04;100130.91;;;15.10;nan
41830;BME280;38614;43.472;23.936;2023-02-19T16:26:55;100122.03;;;14.83;nan
41830;BME280;38614;43.472;23.936;2023-02-19T16:29:49;100138.22;;;14.70;nan
41830;BME280;38614;43.472;23.936;2023-02-19T16:32:40;100141.69;;;14.57;nan
41830;BME280;38614;43.472;23.936;2023-02-19T16:35:38;100142.09;;;14.55;nan
41830;BME280;38614;43.472;23.936;2023-02-19T16:38:26;100116.75;;;14.19;nan
41830;BME280;38614;43.472;23.936;2023-02-19T16:41:14;100133.59;;;14.37;nan
41830;BME280;38614;43.472;23.936;2023-02-19T16:47:24;100148.59;;;14.25;nan
41830;BME280;38614;43.472;23.936;2023-02-19T16:50:23;100150.88;;;14.16;nan
41830;BME280;38614;43.472;23.936;2023-02-19T16:53:20;100148.13;;;14.20;nan
41830;BME280;38614;43.472;23.936;2023-02-19T16:56:17;100158.84;;;14.18;nan
41830;BME280;38614;43.472;23.936;2023-02-19T16:59:05;100155.69;;;14.23;nan
41830;BME280;38614;43.472;23.936;2023-02-19T17:01:55;100164.69;;;14.09;nan
41830;BME280;38614;43.472;23.936;2023-02-19T17:04:45;100138.72;;;13.91;nan